createdAt,value
2023-02-04T00:00:23.245Z,97274.78
2023-02-04T00:03:09.081Z,97285.16
2023-02-04T00:05:54.975Z,97277.72
2023-02-04T00:08:40.462Z,97275.63
2023-02-04T00:11:25.947Z,97271.03
2023-02-04T00:14:11.517Z,97260.31
2023-02-04T00:16:56.682Z,97264.50
2023-02-04T00:19:42.506Z,97263.66
2023-02-04T00:22:29.159Z,97109.56
2023-02-04T00:25:15.263Z,97239.19
2023-02-04T00:28:01.064Z,97054.25
2023-02-04T00:30:47.522Z,97256.34
2023-02-04T00:33:33.267Z,97060.41
2023-02-04T00:36:18.983Z,97058.22
2023-02-04T00:39:04.377Z,97055.91
2023-02-04T00:41:49.822Z,97250.88
2023-02-04T00:44:36.489Z,97246.16
2023-02-04T00:47:21.883Z,97254.88
2023-02-04T00:50:08.591Z,97040.03
2023-02-04T00:52:53.917Z,97257.81
2023-02-04T00:55:39.245Z,97061.97
2023-02-04T00:58:24.817Z,97246.16
2023-02-04T01:01:10.231Z,97229.72
2023-02-04T01:03:56.410Z,97036.88
2023-02-04T01:06:42.433Z,97032.50
2023-02-04T01:09:28.465Z,97237.25
2023-02-04T01:12:14.070Z,97246.00
2023-02-04T01:14:59.630Z,97223.47
2023-02-04T01:17:45.199Z,97242.94
2023-02-04T01:20:32.105Z,97238.94
2023-02-04T01:23:17.910Z,97219.56
2023-02-04T01:26:03.738Z,97222.19
2023-02-04T01:28:49.736Z,97078.72
2023-02-04T01:31:35.803Z,97234.13
2023-02-04T01:34:21.787Z,97237.25
2023-02-04T01:37:07.645Z,97193.09
2023-02-04T01:39:53.060Z,97235.59
2023-02-04T01:42:39.345Z,97199.16
2023-02-04T01:45:26.665Z,97083.50
2023-02-04T01:48:14.214Z,97230.31
2023-02-04T01:51:06.292Z,97228.84
2023-02-04T01:53:51.703Z,97227.00
2023-02-04T01:56:37.148Z,97237.72
2023-02-04T01:59:23.307Z,97189.34
2023-02-04T02:02:45.073Z,97230.31
2023-02-04T02:05:40.236Z,97187.22
2023-02-04T02:08:25.684Z,97018.19
2023-02-04T02:11:11.618Z,97228.22
2023-02-04T02:13:57.164Z,97210.22
2023-02-04T02:16:42.897Z,97215.78
2023-02-04T02:19:36.024Z,97055.91
2023-02-04T02:22:33.327Z,97010.97
2023-02-04T02:25:18.940Z,97205.03
2023-02-04T02:28:09.281Z,97222.78
2023-02-04T02:30:55.266Z,97219.53
2023-02-04T02:33:40.948Z,97203.31
2023-02-04T02:36:26.480Z,97232.44
2023-02-04T02:39:12.112Z,97169.63
2023-02-04T02:41:58.655Z,97220.47
2023-02-04T02:44:47.001Z,97067.59
2023-02-04T02:47:32.860Z,97205.94
2023-02-04T02:50:23.402Z,97214.19
2023-02-04T02:53:21.121Z,97220.03
2023-02-04T02:56:09.535Z,97222.97
2023-02-04T02:58:55.174Z,97229.53
2023-02-04T03:01:42.101Z,97235.28
2023-02-04T03:04:31.849Z,97224.97
2023-02-04T03:07:19.521Z,97201.47
2023-02-04T03:10:05.590Z,97023.72
2023-02-04T03:12:51.131Z,96995.81
2023-02-04T03:15:37.192Z,97027.91
2023-02-04T03:18:23.644Z,97229.34
2023-02-04T03:21:09.065Z,97208.34
2023-02-04T03:23:56.832Z,97230.75
2023-02-04T03:26:42.557Z,97034.56
2023-02-04T03:29:29.813Z,97235.78
2023-02-04T03:32:16.408Z,97199.75
2023-02-04T03:35:01.954Z,97194.31
2023-02-04T03:37:47.688Z,97026.19
2023-02-04T03:40:33.390Z,97202.03
2023-02-04T03:43:19.332Z,97229.94
2023-02-04T03:46:04.990Z,97216.31
2023-02-04T03:48:50.612Z,97224.72
2023-02-04T03:51:36.251Z,97229.47
2023-02-04T03:54:21.958Z,97036.25
2023-02-04T03:57:07.694Z,97231.53
2023-02-04T03:59:53.132Z,97235.19
2023-02-04T04:02:39.799Z,97195.34
2023-02-04T04:05:26.541Z,97024.09
2023-02-04T04:08:11.829Z,97231.31
2023-02-04T04:10:57.185Z,97233.84
2023-02-04T04:13:42.722Z,97238.22
2023-02-04T04:16:29.032Z,97236.34
2023-02-04T04:19:14.583Z,97244.25
2023-02-04T04:21:59.897Z,97244.75
2023-02-04T04:24:45.491Z,97255.84
2023-02-04T04:27:31.437Z,97229.28
2023-02-04T04:30:17.216Z,97250.81
2023-02-04T04:33:02.981Z,97258.25
2023-02-04T04:35:48.371Z,97271.56
2023-02-04T04:38:33.868Z,97071.81
2023-02-04T04:41:19.518Z,97258.81
2023-02-04T04:44:05.183Z,97270.00
2023-02-04T04:46:50.586Z,97256.59
2023-02-04T04:49:36.054Z,97271.56
2023-02-04T04:52:21.356Z,97250.66
2023-02-04T04:55:08.601Z,97273.19
2023-02-04T04:57:53.654Z,97163.22
2023-02-04T05:00:39.373Z,97304.09
2023-02-04T05:03:24.835Z,97268.03
2023-02-04T05:06:10.995Z,97258.63
2023-02-04T05:08:56.442Z,97302.31
2023-02-04T05:11:42.001Z,97287.25
2023-02-04T05:14:27.368Z,97296.25
2023-02-04T05:17:13.055Z,97082.69
2023-02-04T05:19:59.237Z,97308.91
2023-02-04T05:22:45.060Z,97283.56
2023-02-04T05:25:30.332Z,97302.22
2023-02-04T05:28:15.783Z,97140.41
2023-02-04T05:31:01.115Z,97315.22
2023-02-04T05:33:46.626Z,97222.69
2023-02-04T05:36:32.145Z,97347.69
2023-02-04T05:39:29.023Z,97354.19
2023-02-04T05:42:15.255Z,97310.09
2023-02-04T05:45:00.965Z,97357.53
2023-02-04T05:47:46.472Z,97388.97
2023-02-04T05:50:32.359Z,97376.78
2023-02-04T05:53:31.201Z,97373.81
2023-02-04T05:56:26.901Z,97386.13
2023-02-04T05:59:21.291Z,97418.78
2023-02-04T06:02:06.806Z,97412.03
2023-02-04T06:04:52.299Z,97201.72
2023-02-04T06:07:37.804Z,97423.09
2023-02-04T06:10:23.305Z,97433.63
2023-02-04T06:13:08.618Z,97426.38
2023-02-04T06:15:54.083Z,97439.72
2023-02-04T06:18:39.635Z,97421.19
2023-02-04T06:21:25.476Z,97273.38
2023-02-04T06:24:11.375Z,97459.13
2023-02-04T06:26:56.631Z,97472.50
2023-02-04T06:29:42.201Z,97513.63
2023-02-04T06:32:27.780Z,97479.63
2023-02-04T06:35:15.530Z,97508.78
2023-02-04T06:38:01.619Z,97496.22
2023-02-04T06:40:53.695Z,97522.81
2023-02-04T06:43:39.336Z,97512.31
2023-02-04T06:46:24.833Z,97340.00
2023-02-04T06:49:10.543Z,97562.44
2023-02-04T06:51:55.933Z,97560.53
2023-02-04T06:54:41.941Z,97575.88
2023-02-04T06:57:27.797Z,97559.59
2023-02-04T07:00:13.654Z,97548.06
2023-02-04T07:02:59.769Z,97600.94
2023-02-04T07:05:45.348Z,97639.94
2023-02-04T07:08:34.105Z,97627.75
2023-02-04T07:11:20.059Z,97646.50
2023-02-04T07:14:05.536Z,97648.00
2023-02-04T07:16:51.153Z,97651.72
2023-02-04T07:19:37.043Z,97576.84
2023-02-04T07:22:23.026Z,97688.22
2023-02-04T07:25:10.461Z,97713.19
2023-02-04T07:27:56.430Z,97704.47
2023-02-04T07:30:41.871Z,97711.38
2023-02-04T07:33:27.955Z,97702.56
2023-02-04T07:36:15.216Z,97763.97
2023-02-04T07:39:00.721Z,97699.38
2023-02-04T07:41:46.551Z,97751.81
2023-02-04T07:44:39.334Z,97760.94
2023-02-04T07:47:25.781Z,97768.63
2023-02-04T07:50:12.363Z,97775.53
2023-02-04T07:52:57.805Z,97775.78
2023-02-04T07:55:43.723Z,97790.59
2023-02-04T07:58:29.426Z,97766.03
2023-02-04T08:01:15.135Z,97797.34
2023-02-04T08:04:00.771Z,97798.38
2023-02-04T08:06:46.561Z,97790.03
2023-02-04T08:09:31.958Z,97834.56
2023-02-04T08:12:17.447Z,97855.19
2023-02-04T08:15:04.056Z,97839.84
2023-02-04T08:17:49.581Z,97849.47
2023-02-04T08:20:35.337Z,97868.69
2023-02-04T08:23:20.866Z,97676.41
2023-02-04T08:26:06.514Z,97898.28
2023-02-04T08:28:52.011Z,97690.97
2023-02-04T08:31:38.127Z,97914.06
2023-02-04T08:34:23.726Z,97908.41
2023-02-04T08:37:09.446Z,97923.28
2023-02-04T08:39:55.930Z,97941.03
2023-02-04T08:42:41.346Z,97932.34
2023-02-04T08:45:26.690Z,97905.25
2023-02-04T08:48:12.580Z,97748.13
2023-02-04T08:50:57.944Z,97976.78
2023-02-04T08:53:44.572Z,97983.72
2023-02-04T08:56:31.151Z,97821.06
2023-02-04T08:59:17.387Z,98017.13
2023-02-04T09:02:03.541Z,98027.25
2023-02-04T09:04:49.632Z,98043.06
2023-02-04T09:07:35.445Z,98057.91
2023-02-04T09:10:21.550Z,98058.41
2023-02-04T09:13:09.189Z,98046.81
2023-02-04T09:15:57.577Z,98053.47
2023-02-04T09:18:45.182Z,98092.50
2023-02-04T09:21:32.080Z,98097.94
2023-02-04T09:24:18.746Z,98115.44
2023-02-04T09:27:04.179Z,98110.72
2023-02-04T09:29:50.075Z,98135.91
2023-02-04T09:32:35.954Z,98093.38
2023-02-04T09:35:21.397Z,98148.28
2023-02-04T09:38:06.987Z,98135.16
2023-02-04T09:41:17.390Z,98159.88
2023-02-04T09:44:05.357Z,98174.66
2023-02-04T09:46:54.004Z,98190.22
2023-02-04T09:49:39.462Z,98195.38
2023-02-04T09:52:27.405Z,98168.97
2023-02-04T09:55:40.717Z,98201.59
2023-02-04T09:58:33.471Z,98058.69
2023-02-04T10:01:31.139Z,98204.84
2023-02-04T10:04:17.411Z,98208.06
2023-02-04T10:07:04.058Z,98064.38
2023-02-04T10:09:50.358Z,98240.69
2023-02-04T10:12:36.866Z,98248.59
2023-02-04T10:15:30.706Z,98258.00
2023-02-04T10:18:26.500Z,98269.81
2023-02-04T10:21:24.468Z,98283.66
2023-02-04T10:24:30.788Z,98287.63
2023-02-04T10:27:16.570Z,98255.16
2023-02-04T10:30:02.569Z,98307.66
2023-02-04T10:32:49.177Z,98289.84
2023-02-04T10:35:50.073Z,98281.16
2023-02-04T10:38:37.363Z,98144.22
2023-02-04T10:41:26.894Z,98316.44
2023-02-04T10:44:14.265Z,98349.34
2023-02-04T10:47:05.937Z,98355.84
2023-02-04T10:50:06.363Z,98360.28
2023-02-04T10:53:17.143Z,98151.84
2023-02-04T10:56:03.191Z,98157.50
2023-02-04T10:58:49.607Z,98161.63
2023-02-04T11:01:35.159Z,98344.03
2023-02-04T11:04:21.129Z,98396.78
2023-02-04T11:07:13.446Z,98412.59
2023-02-04T11:09:59.127Z,98416.97
2023-02-04T11:12:53.759Z,98421.91
2023-02-04T11:15:42.831Z,98427.34
2023-02-04T11:18:30.286Z,98437.25
2023-02-04T11:21:33.524Z,98468.03
2023-02-04T11:24:25.738Z,98440.22
2023-02-04T11:27:20.570Z,98435.28
2023-02-04T11:30:19.302Z,98233.53
2023-02-04T11:33:07.078Z,98454.06
2023-02-04T11:36:06.985Z,98473.72
2023-02-04T11:38:54.482Z,98416.00
2023-02-04T11:41:45.952Z,98443.06
2023-02-04T11:44:33.823Z,98456.75
2023-02-04T11:47:22.025Z,98395.19
2023-02-04T11:50:25.206Z,98463.66
2023-02-04T11:53:12.255Z,98498.47
2023-02-04T11:55:58.768Z,98482.47
2023-02-04T11:58:44.163Z,98489.41
2023-02-04T12:01:34.377Z,98490.41
2023-02-04T12:04:25.231Z,98382.66
2023-02-04T12:07:12.921Z,98512.69
2023-02-04T12:10:14.356Z,98442.22
2023-02-04T12:13:25.076Z,98360.41
2023-02-04T12:16:12.304Z,98490.50
2023-02-04T12:19:02.719Z,98493.78
2023-02-04T12:22:09.815Z,98509.91
2023-02-04T12:24:56.208Z,98331.19
2023-02-04T12:27:44.463Z,98526.25
2023-02-04T12:30:30.230Z,98335.84
2023-02-04T12:33:28.854Z,98490.56
2023-02-04T12:36:19.485Z,98521.56
2023-02-04T12:39:06.974Z,98524.50
2023-02-04T12:41:53.555Z,98535.69
2023-02-04T12:44:38.940Z,98529.63
2023-02-04T12:47:24.601Z,98572.25
2023-02-04T12:50:14.093Z,98561.88
2023-02-04T12:53:00.047Z,98559.66
2023-02-04T12:55:45.809Z,98569.56
2023-02-04T12:58:31.406Z,98576.50
2023-02-04T13:01:17.016Z,98593.19
2023-02-04T13:04:02.391Z,98575.72
2023-02-04T13:06:47.906Z,98584.66
2023-02-04T13:09:34.780Z,98616.38
2023-02-04T13:12:20.541Z,98394.47
2023-02-04T13:15:06.746Z,98385.81
2023-02-04T13:17:52.278Z,98578.78
2023-02-04T13:20:37.847Z,98381.81
2023-02-04T13:23:24.142Z,98560.88
2023-02-04T13:26:10.580Z,98508.38
2023-02-04T13:28:56.473Z,98641.75
2023-02-04T13:31:42.672Z,98661.91
2023-02-04T13:34:28.144Z,98635.22
2023-02-04T13:37:14.331Z,98404.00
2023-02-04T13:40:00.242Z,98642.66
2023-02-04T13:42:48.013Z,98638.44
2023-02-04T13:45:33.864Z,98628.25
2023-02-04T13:48:19.722Z,98651.56
2023-02-04T13:51:06.682Z,98624.28
2023-02-04T13:53:52.689Z,98630.94
2023-02-04T13:56:38.380Z,98662.06
2023-02-04T13:59:24.101Z,98644.81
2023-02-04T14:02:09.975Z,98650.09
2023-02-04T14:04:57.875Z,98671.31
2023-02-04T14:08:04.719Z,98499.28
2023-02-04T14:10:53.319Z,98673.56
2023-02-04T14:13:38.979Z,98662.91
2023-02-04T14:16:24.750Z,98671.97
2023-02-04T14:19:10.340Z,98627.69
2023-02-04T14:22:00.504Z,98685.66
2023-02-04T14:24:47.716Z,98625.44
2023-02-04T14:27:35.426Z,98480.75
2023-02-04T14:30:30.077Z,98670.66
2023-02-04T14:33:18.155Z,98684.25
2023-02-04T14:36:03.894Z,98674.53
2023-02-04T14:38:50.184Z,98697.41
2023-02-04T14:41:37.787Z,98667.47
2023-02-04T14:44:23.323Z,98491.22
2023-02-04T14:47:08.454Z,98519.44
2023-02-04T14:49:53.957Z,98686.25
2023-02-04T14:52:39.681Z,98691.50
2023-02-04T14:55:26.573Z,98709.81
2023-02-04T14:58:13.741Z,98682.47
2023-02-04T15:01:01.794Z,98720.59
2023-02-04T15:03:51.440Z,98724.19
2023-02-04T15:06:36.683Z,98573.13
2023-02-04T15:09:22.044Z,98529.75
2023-02-04T15:12:07.765Z,98520.31
2023-02-04T15:14:55.639Z,98742.31
2023-02-04T15:17:41.313Z,98703.91
2023-02-04T15:20:26.776Z,98587.13
2023-02-04T15:23:13.154Z,98757.25
2023-02-04T15:25:58.768Z,98771.63
2023-02-04T15:28:44.778Z,98778.56
2023-02-04T15:31:30.724Z,98606.75
2023-02-04T15:34:17.736Z,98568.88
2023-02-04T15:37:03.415Z,98811.31
2023-02-04T15:39:49.584Z,98784.97
2023-02-04T15:42:36.742Z,98809.53
2023-02-04T15:45:22.290Z,98816.25
2023-02-04T15:48:11.435Z,98765.94
2023-02-04T15:50:57.583Z,98644.97
2023-02-04T15:53:43.202Z,98819.72
2023-02-04T15:56:29.374Z,98801.66
2023-02-04T15:59:16.022Z,98765.53
2023-02-04T16:02:01.810Z,98824.72
2023-02-04T16:04:49.351Z,98866.88
2023-02-04T16:07:35.187Z,98823.53
2023-02-04T16:10:20.769Z,98814.69
2023-02-04T16:13:06.340Z,98625.91
2023-02-04T16:15:52.072Z,98871.03
2023-02-04T16:18:37.600Z,98859.81
2023-02-04T16:21:23.443Z,98877.97
2023-02-04T16:24:09.384Z,98876.88
2023-02-04T16:26:54.722Z,98652.47
2023-02-04T16:29:41.465Z,98880.41
2023-02-04T16:32:27.602Z,98818.16
2023-02-04T16:35:14.877Z,98913.38
2023-02-04T16:38:02.548Z,98923.22
2023-02-04T16:40:50.856Z,98902.75
2023-02-04T16:43:36.476Z,98900.31
2023-02-04T16:46:30.201Z,98902.72
2023-02-04T16:49:17.702Z,98759.44
2023-02-04T16:52:05.232Z,98906.88
2023-02-04T16:54:50.547Z,98916.25
2023-02-04T16:57:36.030Z,98881.31
2023-02-04T17:00:21.683Z,98681.94
2023-02-04T17:03:09.766Z,98919.03
2023-02-04T17:05:55.769Z,98919.22
2023-02-04T17:08:51.375Z,98931.19
2023-02-04T17:11:37.945Z,98953.47
2023-02-04T17:14:26.516Z,98907.25
2023-02-04T17:17:16.548Z,98920.72
2023-02-04T17:20:06.822Z,98841.97
2023-02-04T17:22:53.590Z,98914.56
2023-02-04T17:25:41.764Z,98766.94
2023-02-04T17:28:27.454Z,98905.94
2023-02-04T17:31:13.421Z,98931.19
2023-02-04T17:33:59.674Z,98970.09
2023-02-04T17:36:45.900Z,98921.06
2023-02-04T17:39:31.651Z,98960.84
2023-02-04T17:42:17.231Z,98944.84
2023-02-04T17:45:03.771Z,98940.91
2023-02-04T17:47:51.548Z,98923.53
2023-02-04T17:50:45.151Z,98940.00
2023-02-04T17:53:31.881Z,98952.34
2023-02-04T17:56:17.791Z,98955.97
2023-02-04T17:59:03.322Z,98963.72
2023-02-04T18:01:50.236Z,98902.16
2023-02-04T18:04:39.952Z,98963.56
2023-02-04T18:07:27.210Z,98913.91
2023-02-04T18:10:25.619Z,98971.75
2023-02-04T18:13:20.545Z,98942.94
2023-02-04T18:16:34.716Z,98989.75
2023-02-04T18:19:28.030Z,99019.88
2023-02-04T18:22:16.885Z,98814.69
2023-02-04T18:25:14.100Z,98910.63
2023-02-04T18:28:13.838Z,98961.84
2023-02-04T18:31:01.131Z,98866.34
2023-02-04T18:33:48.785Z,98996.66
2023-02-04T18:36:34.570Z,98996.38
2023-02-04T18:39:26.091Z,98992.94
2023-02-04T18:42:22.494Z,98967.84
2023-02-04T18:45:24.211Z,99010.09
2023-02-04T18:48:19.460Z,99000.59
2023-02-04T18:51:22.226Z,99008.81
2023-02-04T18:54:29.673Z,98977.72
2023-02-04T18:57:29.245Z,98963.84
2023-02-04T19:00:34.664Z,99010.31
2023-02-04T19:03:27.635Z,99039.84
2023-02-04T19:06:29.632Z,99008.50
2023-02-04T19:09:28.209Z,98848.53
2023-02-04T19:12:22.281Z,99049.94
2023-02-04T19:15:30.840Z,99017.41
2023-02-04T19:18:27.032Z,99020.56
2023-02-04T19:21:28.515Z,99014.59
2023-02-04T19:24:19.931Z,98897.09
2023-02-04T19:27:32.019Z,99011.00
2023-02-04T19:30:26.972Z,99019.16
2023-02-04T19:33:43.525Z,99015.69
2023-02-04T19:36:37.838Z,99062.59
2023-02-04T19:39:40.392Z,99028.38
2023-02-04T19:42:34.138Z,99030.63
2023-02-04T19:45:22.804Z,99053.75
2023-02-04T19:48:35.839Z,99033.97
2023-02-04T19:51:27.980Z,99045.72
2023-02-04T19:54:26.116Z,98975.84
2023-02-04T19:57:25.780Z,99041.25
2023-02-04T20:00:38.896Z,99050.88
2023-02-04T20:03:38.851Z,98831.09
2023-02-04T20:06:39.779Z,99056.34
2023-02-04T20:09:31.061Z,99052.44
2023-02-04T20:12:18.754Z,99058.91
2023-02-04T20:15:18.981Z,98890.69
2023-02-04T20:18:24.537Z,98872.84
2023-02-04T20:21:11.509Z,98840.47
2023-02-04T20:23:58.210Z,99081.38
2023-02-04T20:26:44.675Z,99079.38
2023-02-04T20:29:37.416Z,98867.91
2023-02-04T20:32:29.718Z,99096.13
2023-02-04T20:35:22.359Z,99101.84
2023-02-04T20:38:18.749Z,98885.81
2023-02-04T20:41:19.358Z,99046.94
2023-02-04T20:44:27.794Z,99083.09
2023-02-04T20:47:44.266Z,98920.91
2023-02-04T20:50:38.558Z,99100.66
2023-02-04T20:54:09.361Z,99099.28
2023-02-04T20:57:07.303Z,98903.53
2023-02-04T20:59:54.724Z,98875.94
2023-02-04T21:02:41.560Z,99114.53
2023-02-04T21:05:30.152Z,99113.34
2023-02-04T21:08:34.633Z,99134.00
2023-02-04T21:11:25.775Z,99130.81
2023-02-04T21:14:25.801Z,99158.97
2023-02-04T21:17:14.777Z,99141.38
2023-02-04T21:20:04.766Z,99135.19
2023-02-04T21:22:57.896Z,99139.41
2023-02-04T21:25:46.350Z,99146.03
2023-02-04T21:28:35.338Z,99144.97
2023-02-04T21:31:23.309Z,99146.66
2023-02-04T21:34:14.489Z,99148.91
2023-02-04T21:37:02.997Z,99137.19
2023-02-04T21:39:53.954Z,99148.47
2023-02-04T21:42:43.568Z,99141.09
2023-02-04T21:45:32.410Z,99152.53
2023-02-04T21:48:20.572Z,99019.03
2023-02-04T21:51:10.397Z,99136.31
2023-02-04T21:53:56.290Z,99156.75
2023-02-04T21:56:41.825Z,99136.00
2023-02-04T21:59:27.814Z,99137.81
2023-02-04T22:02:14.510Z,99127.34
2023-02-04T22:05:00.045Z,99033.88
2023-02-04T22:07:45.500Z,99133.03
2023-02-04T22:10:31.712Z,99157.63
2023-02-04T22:13:17.924Z,99163.06
2023-02-04T22:16:06.086Z,99163.81
2023-02-04T22:18:53.060Z,99139.03
2023-02-04T22:21:38.527Z,99168.81
2023-02-04T22:24:23.964Z,99176.91
2023-02-04T22:27:09.555Z,99008.97
2023-02-04T22:29:57.227Z,99167.16
2023-02-04T22:32:44.354Z,99184.63
2023-02-04T22:35:38.136Z,99045.31
2023-02-04T22:38:24.696Z,99163.56
2023-02-04T22:41:13.940Z,99222.06
2023-02-04T22:44:08.131Z,99182.94
2023-02-04T22:46:54.223Z,99170.94
2023-02-04T22:49:40.640Z,99008.06
2023-02-04T22:52:26.410Z,99210.03
2023-02-04T22:55:16.497Z,99072.06
2023-02-04T22:58:05.231Z,99201.94
2023-02-04T23:00:54.851Z,99170.97
2023-02-04T23:03:42.371Z,99110.81
2023-02-04T23:06:29.931Z,98985.81
2023-02-04T23:09:23.542Z,99171.84
2023-02-04T23:12:15.011Z,98982.81
2023-02-04T23:15:00.621Z,99212.16
2023-02-04T23:17:49.626Z,99211.56
2023-02-04T23:20:42.808Z,99203.75
2023-02-04T23:23:31.625Z,99183.56
2023-02-04T23:26:21.223Z,99199.66
2023-02-04T23:29:09.774Z,99202.69
2023-02-04T23:31:56.727Z,99022.47
2023-02-04T23:34:42.553Z,99181.50
2023-02-04T23:37:28.736Z,99218.78
2023-02-04T23:40:14.372Z,99205.69
2023-02-04T23:42:59.844Z,99047.53
2023-02-04T23:45:46.009Z,99214.88
2023-02-04T23:48:34.196Z,99208.25
2023-02-04T23:51:19.549Z,99210.06
2023-02-04T23:54:05.457Z,99265.13
2023-02-04T23:56:52.076Z,99224.94
2023-02-04T23:59:42.102Z,99007.84
